Aérodrome :
LOGIN :

S'inscrire | Disclaimer

   EN    FR    IT 

 










Légende :    VFR   VFR Marginal   IFR   IFR Intensif   IFR Très Intensif
Visi : 
Plafond : 
>= 8 km
>= 3000ft
5 à 8 km
1000 à 3000 ft
1500m à 5 km
500 à 1000 ft
800 à 1500m
200 à 500 ft
< 800m
< 200 ft
Symboles :   Orages  Brouillard  Fortes neiges  Fortes précipitations  Vent > 20 kt
SIGMETs :   Divers  Orages  Givrage  Turbulence  Onde Orograph.  Cendres Volcan.







- Altitude de l'aérodrome : 659 ft
- Code IATA : LGG


EBLG - Liège

DERNIER METAR :
  • 240650Z 24006KT 9999 FEW042 07/06 Q1033 NOSIG

METARs EXPIRÉS :
  • 240620Z 25004KT 9999 FEW042 06/05 Q1032 NOSIG
  • 240550Z 25006KT 9999 FEW042 06/06 Q1032 NOSIG
  • 240520Z 25005KT 9999 FEW040 06/05 Q1032 NOSIG
  • 240450Z 26005KT 9999 BKN045 06/05 Q1031 NOSIG
  • 240420Z 26005KT 9999 BKN045 06/05 Q1031 NOSIG

TAF TAF EBLG
Valide du 24 à 06h jusqu'au 25 à 12h UTC


240500Z 2406/2512 26006KT 9999 FEW025TCU SCT040
BECMG 2410/2412 32010KT
BECMG 2419/2421 26003KT
PROB40
TEMPO 2502/2507 2500 BR
PROB30
TEMPO 2504/2507 1200 BCFG
Pas de NOTAMs connus pour ce terrain.



MET'MAP, la Météo Aéronautique d'un coup d'oeil ! - Copyright ORBIFLY Décembre 2007 - Disclaimer

ORBIFLY MET'MAP TEAM :

Programmation & Développement : Alexandra Zaïnal
Conception & Développement : Baudouin d'Aumeries
Co-Programmation & Développement : Marc-Olivier Méhu
Soutien technique & logistique : Manuel Goepfert

Contact : metmap@orbifly.com




SOURCES & CREDITS :

   NOAA